.
WxDataArchive / Data Records for 2009-03-11
2009-03-10 March 2009 2009-03-12

Data Records for Wednesday, 11 March 2009

Time	Temp	Chill	HIndex	Humid	Dewpt	 Wind 	HiWind	WindDir	Rain 	Barom 
-----	----	-----	------	-----	-----	------	------	-------	-----	----- 
00:00	57.3	57.3	57.3	96	56.2	4	10	248	0.00	29.700 
00:05	57.0	57.0	57.0	96	55.9	4	9	248	0.01	29.698 
00:10	56.9	56.9	56.9	96	55.8	5	11	248	0.00	29.696 
00:15	56.9	56.9	56.9	96	55.8	4	9	270	0.00	29.700 
00:20	56.9	56.9	56.9	96	55.8	5	13	270	0.00	29.711 
00:25	56.9	56.9	56.9	95	55.5	6	20	270	0.01	29.711 
00:30	57.0	57.0	57.0	94	55.3	5	12	270	0.00	29.707 
00:35	57.2	57.2	57.2	93	55.2	6	14	270	0.00	29.707 
00:40	57.2	57.2	57.2	92	54.9	5	14	248	0.00	29.714 
00:45	57.5	57.5	57.5	91	54.9	6	13	270	0.00	29.717 
00:50	57.3	57.3	57.3	90	54.4	4	9	248	0.00	29.724 
00:55	57.0	57.0	57.0	87	53.2	6	14	270	0.00	29.731 
01:00	56.7	56.7	56.7	84	51.9	9	19	270	0.00	29.737 
01:05	55.9	55.9	55.9	83	50.8	8	17	270	0.00	29.744 
01:10	54.8	54.8	54.8	85	50.4	6	12	270	0.00	29.757 
01:15	53.3	53.3	53.3	85	48.9	7	18	270	0.00	29.767 
01:20	52.5	52.5	52.5	84	47.8	5	12	270	0.00	29.775 
01:25	51.4	51.4	51.4	79	45.1	9	20	270	0.00	29.784 
01:30	50.5	50.5	50.5	73	42.2	7	12	270	0.00	29.793 
01:35	49.8	46.9	49.8	74	41.9	7	19	270	0.00	29.800 
01:40	49.1	45.7	49.1	75	41.5	8	16	270	0.00	29.809 
01:45	48.5	45.4	48.5	77	41.6	7	18	270	0.00	29.817 
01:50	47.9	45.8	47.9	77	41.0	5	10	270	0.00	29.824 
01:55	47.4	44.6	47.4	77	40.6	6	15	270	0.00	29.826 
02:00	47.0	44.1	47.0	77	40.2	6	15	270	0.00	29.836 
02:05	46.7	43.7	46.7	77	39.9	6	16	270	0.00	29.838 
02:10	46.4	44.0	46.4	77	39.6	5	9	270	0.00	29.847 
02:15	46.2	43.8	46.2	77	39.4	5	10	270	0.00	29.855 
02:20	45.8	44.0	45.8	77	39.0	4	9	270	0.00	29.858 
02:25	45.7	43.2	45.7	77	38.9	5	12	270	0.00	29.859 
02:30	45.4	43.6	45.4	77	38.6	4	9	270	0.00	29.871 
02:35	45.1	42.5	45.1	78	38.7	5	18	270	0.00	29.876 
02:40	44.6	41.2	44.6	78	38.2	6	13	270	0.00	29.880 
02:45	44.3	42.3	44.3	79	38.2	4	11	270	0.00	29.887 
02:50	43.9	41.1	43.9	76	36.8	5	11	270	0.00	29.890 
02:55	43.5	40.6	43.5	75	36.1	5	10	270	0.00	29.903 
03:00	43.1	40.1	43.1	75	35.7	5	11	270	0.00	29.904 
03:05	42.8	39.8	42.8	76	35.8	5	11	270	0.00	29.913 
03:10	42.3	37.9	42.3	74	34.6	7	14	270	0.00	29.922 
03:15	41.5	37.5	41.5	72	33.2	6	16	270	0.00	29.926 
03:20	40.5	35.7	40.5	73	32.5	7	14	270	0.00	29.932 
03:25	39.6	34.7	39.6	75	32.3	7	18	270	0.00	29.942 
03:30	39.2	34.8	39.2	76	32.3	6	10	270	0.00	29.946 
03:35	38.9	34.4	38.9	77	32.3	6	12	270	0.00	29.944 
03:40	38.5	34.0	38.5	76	31.6	6	20	270	0.00	29.949 
03:45	38.3	34.5	38.3	74	30.8	5	12	270	0.00	29.958 
03:50	38.0	33.4	38.0	73	30.1	6	17	270	0.00	29.957 
03:55	37.9	34.0	37.9	74	30.4	5	12	270	0.00	29.955 
04:00	37.6	33.7	37.6	75	30.4	5	11	270	0.00	29.953 
04:05	37.5	32.1	37.5	75	30.3	7	16	270	0.00	29.959 
04:10	37.3	33.3	37.3	76	30.4	5	11	270	0.00	29.960 
04:15	37.3	33.3	37.3	77	30.8	5	11	270	0.00	29.964 
04:20	37.2	33.2	37.2	76	30.3	5	13	270	0.00	29.965 
04:25	37.2	33.2	37.2	75	30.0	5	16	270	0.00	29.968 
04:30	36.9	32.1	36.9	73	29.1	6	13	270	0.00	29.973 
04:35	36.8	32.7	36.8	74	29.3	5	17	270	0.00	29.976 
04:40	36.6	31.7	36.6	73	28.8	6	12	270	0.00	29.978 
04:45	36.5	32.4	36.5	74	29.0	5	12	270	0.00	29.985 
04:50	36.5	32.4	36.5	75	29.3	5	11	270	0.00	29.990 
04:55	36.5	32.4	36.5	74	29.0	5	9	270	0.00	29.992 
05:00	36.5	33.3	36.5	77	30.0	4	11	270	0.00	29.992 
05:05	36.3	31.4	36.3	77	29.8	6	14	270	0.00	29.996 
05:10	35.9	30.2	35.9	74	28.4	7	19	270	0.00	29.999 
05:15	35.6	29.8	35.6	73	27.8	7	16	270	0.00	30.009 
05:20	35.3	30.2	35.3	73	27.5	6	14	270	0.00	30.010 
05:25	35.2	29.4	35.2	75	28.1	7	18	270	0.00	30.013 
05:30	34.7	29.4	34.7	75	27.6	6	14	270	0.00	30.018 
05:35	34.3	27.6	34.3	74	26.9	8	16	270	0.00	30.021 
05:40	33.8	27.7	33.8	73	26.1	7	19	270	0.00	30.028 
05:45	33.5	28.8	33.5	73	25.8	5	18	270	0.00	30.029 
05:50	33.2	27.7	33.2	73	25.5	6	15	270	0.00	30.033 
05:55	32.9	28.1	32.9	71	24.5	5	11	270	0.00	30.034 
06:00	32.8	27.2	32.8	70	24.1	6	14	270	0.00	30.041 
06:05	32.7	28.9	32.7	72	24.7	4	13	270	0.00	30.038 
06:10	32.5	28.7	32.5	74	25.2	4	11	270	0.00	30.046 
06:15	32.4	26.0	32.4	75	25.4	7	15	270	0.00	30.048 
06:20	32.1	26.3	32.1	75	25.1	6	14	270	0.00	30.053 
06:25	31.6	25.0	31.6	73	24.0	7	15	270	0.00	30.059 
06:30	31.3	25.4	31.3	73	23.7	6	15	270	0.00	30.063 
06:35	31.2	26.1	31.2	73	23.6	5	13	270	0.00	30.069 
06:40	31.0	25.9	31.0	72	23.1	5	12	270	0.00	30.078 
06:45	30.7	23.9	30.7	72	22.8	7	16	270	0.00	30.079 
06:50	30.7	25.5	30.7	73	23.1	5	11	270	0.00	30.081 
06:55	30.7	25.5	30.7	73	23.1	5	12	270	0.00	30.090 
07:00	30.7	26.6	30.7	74	23.4	4	14	270	0.00	30.093 
07:05	30.6	25.4	30.6	73	23.0	5	15	270	0.00	30.095 
07:10	30.4	24.3	30.4	72	22.5	6	13	270	0.00	30.096 
07:15	30.3	25.1	30.3	73	22.7	5	12	270	0.00	30.094 
07:20	30.3	26.1	30.3	73	22.7	4	14	270	0.00	30.097 
07:25	30.1	25.9	30.1	74	22.8	4	12	270	0.00	30.105 
07:30	30.0	24.7	30.0	74	22.7	5	10	270	0.00	30.109 
07:35	29.7	25.4	29.7	73	22.1	4	14	270	0.00	30.112 
07:40	29.4	25.1	29.4	74	22.2	4	11	270	0.00	30.117 
07:45	29.3	25.0	29.3	74	22.1	4	10	270	0.00	30.125 
07:50	29.0	22.7	29.0	73	21.4	6	14	270	0.00	30.132 
07:55	28.7	21.5	28.7	73	21.2	7	17	270	0.00	30.133 
08:00	28.8	24.4	28.8	74	21.6	4	12	270	0.00	30.133 
08:05	28.8	22.4	28.8	73	21.3	6	16	270	0.00	30.142 
08:10	28.5	22.1	28.5	73	21.0	6	13	270	0.00	30.138 
08:15	28.5	24.0	28.5	73	21.0	4	12	292	0.00	30.144 
08:20	28.7	24.3	28.7	73	21.2	4	9	270	0.00	30.152 
08:25	28.8	23.3	28.8	72	20.9	5	11	270	0.00	30.154 
08:30	28.8	24.4	28.8	72	20.9	4	7	270	0.00	30.161 
08:35	28.8	23.3	28.8	69	19.9	5	12	270	0.00	30.167 
08:40	28.5	23.0	28.5	66	18.6	5	11	270	0.00	30.175 
08:45	28.5	23.0	28.5	64	17.9	5	16	270	0.00	30.177 
08:50	28.5	23.0	28.5	63	17.5	5	9	270	0.00	30.178 
08:55	28.7	23.2	28.7	63	17.7	5	13	270	0.00	30.181 
09:00	29.1	29.1	29.1	64	18.5	3	5	270	0.00	30.186 
09:05	29.4	25.1	29.4	63	18.4	4	8	270	0.00	30.192 
09:10	29.3	23.9	29.3	63	18.3	5	10	270	0.00	30.193 
09:15	29.4	24.0	29.4	63	18.4	5	11	270	0.00	30.200 
09:20	28.7	21.5	28.7	60	16.6	7	13	270	0.00	30.200 
09:25	28.7	22.3	28.7	59	16.2	6	15	270	0.00	30.208 
09:30	29.0	23.6	29.0	61	17.3	5	10	270	0.00	30.209 
09:35	29.5	25.2	29.5	61	17.7	4	11	270	0.00	30.211 
09:40	29.5	24.1	29.5	61	17.7	5	8	270	0.00	30.218 
09:45	29.5	24.1	29.5	58	16.6	5	12	270	0.00	30.217 
09:50	29.8	24.5	29.8	59	17.2	5	12	270	0.00	30.219 
09:55	30.1	30.1	30.1	61	18.3	3	10	270	0.00	30.223 
10:00	30.1	24.8	30.1	55	15.9	5	11	270	0.00	30.232 
10:05	30.1	25.9	30.1	58	17.1	4	10	270	0.00	30.232 
10:10	30.3	26.1	30.3	59	17.7	4	9	270	0.00	30.236 
10:15	30.4	25.2	30.4	61	18.6	5	12	270	0.00	30.239 
10:20	30.3	24.2	30.3	59	17.7	6	17	270	0.00	30.250 
10:25	30.0	23.8	30.0	58	17.0	6	12	270	0.00	30.254 
10:30	30.1	24.0	30.1	59	17.5	6	12	270	0.00	30.263 
10:35	30.1	24.8	30.1	58	17.1	5	9	270	0.00	30.262 
10:40	30.4	25.2	30.4	58	17.4	5	11	270	0.00	30.262 
10:45	30.7	26.6	30.7	60	18.5	4	11	270	0.00	30.266 
10:50	31.5	26.5	31.5	60	19.2	5	12	270	0.00	30.264 
10:55	31.5	25.6	31.5	58	18.4	6	14	270	0.00	30.268 
11:00	30.7	23.9	30.7	57	17.3	7	15	270	0.00	30.280 
11:05	30.7	24.7	30.7	58	17.7	6	14	270	0.00	30.281 
11:10	31.5	27.5	31.5	60	19.2	4	15	270	0.00	30.280 
11:15	32.1	27.2	32.1	60	19.8	5	11	270	0.00	30.287 
11:20	32.4	28.5	32.4	61	20.5	4	11	270	0.00	30.286 
11:25	31.9	26.1	31.9	58	18.8	6	11	270	0.00	30.289 
11:30	31.2	26.1	31.2	58	18.2	5	11	270	0.00	30.287 
11:35	30.7	25.5	30.7	61	18.9	5	12	270	0.00	30.292 
11:40	31.2	26.1	31.2	59	18.6	5	9	270	0.00	30.291 
11:45	30.7	24.7	30.7	56	16.9	6	13	270	0.00	30.298 
11:50	30.6	24.6	30.6	58	17.6	6	12	270	0.00	30.300 
11:55	30.9	26.8	30.9	60	18.7	4	7	292	0.00	30.301 
12:00	30.9	25.8	30.9	59	18.3	5	15	270	0.00	30.300 
12:05	31.0	25.9	31.0	60	18.8	5	10	270	0.00	30.299 
12:10	30.9	26.8	30.9	58	17.9	4	10	270	0.00	30.302 
12:15	30.4	25.2	30.4	58	17.4	5	12	270	0.00	30.308 
12:20	30.6	26.5	30.6	58	17.6	4	9	270	0.00	30.312 
12:25	30.6	26.5	30.6	56	16.8	4	10	270	0.00	30.311 
12:30	30.3	26.1	30.3	57	16.9	4	10	270	0.00	30.316 
12:35	30.3	30.3	30.3	59	17.7	3	11	248	0.00	30.318 
12:40	31.3	31.3	31.3	62	19.8	3	7	270	0.00	30.320 
12:45	31.8	27.8	31.8	59	19.1	4	11	270	0.00	30.327 
12:50	31.2	31.2	31.2	56	17.4	3	7	270	0.00	30.325 
12:55	31.2	31.2	31.2	59	18.6	3	5	270	0.00	30.329 
13:00	31.3	27.3	31.3	61	19.4	4	10	270	0.00	30.333 
13:05	30.9	26.8	30.9	60	18.7	4	11	270	0.00	30.343 
13:10	31.3	27.3	31.3	59	18.7	4	11	270	0.00	30.344 
13:15	32.2	28.3	32.2	58	19.1	4	10	270	0.00	30.343 
13:20	32.7	28.9	32.7	59	20.0	4	10	270	0.00	30.350 
13:25	32.9	29.1	32.9	58	19.8	4	11	270	0.00	30.344 
13:30	33.1	29.3	33.1	59	20.4	4	11	270	0.00	30.350 
13:35	32.7	27.9	32.7	58	19.6	5	16	270	0.00	30.353 
13:40	33.4	33.4	33.4	57	19.8	3	6	270	0.00	30.355 
13:45	33.8	33.8	33.8	57	20.2	3	9	270	0.00	30.355 
13:50	33.4	28.7	33.4	56	19.4	5	14	270	0.00	30.357 
13:55	33.1	28.4	33.1	55	18.7	5	13	270	0.00	30.356 
14:00	33.1	28.4	33.1	56	19.1	5	12	270	0.00	30.359 
14:05	33.8	30.2	33.8	54	18.9	4	7	270	0.00	30.369 
14:10	34.1	30.5	34.1	53	18.8	4	11	270	0.00	30.368 
14:15	34.9	34.9	34.9	54	20.0	3	6	292	0.00	30.362 
14:20	34.6	31.1	34.6	51	18.4	4	9	315	0.00	30.371 
14:25	34.7	31.2	34.7	56	20.6	4	9	292	0.00	30.374 
14:30	35.0	31.5	35.0	58	21.7	4	11	270	0.00	30.374 
14:35	34.9	30.5	34.9	57	21.2	5	13	270	0.00	30.375 
14:40	34.7	30.2	34.7	57	21.0	5	12	270	0.00	30.377 
14:45	34.4	29.9	34.4	54	19.5	5	10	270	0.00	30.378 
14:50	34.4	30.8	34.4	54	19.5	4	13	270	0.00	30.383 
14:55	34.9	31.4	34.9	56	20.8	4	9	270	0.00	30.381 
15:00	35.2	31.8	35.2	54	20.2	4	11	270	0.00	30.379 
15:05	35.5	32.1	35.5	53	20.1	4	7	270	0.00	30.383 
15:10	35.5	31.2	35.5	55	21.0	5	10	270	0.00	30.382 
15:15	35.3	31.9	35.3	55	20.8	4	7	270	0.00	30.383 
15:20	35.5	32.1	35.5	52	19.6	4	10	270	0.00	30.389 
15:25	35.0	31.5	35.0	52	19.2	4	10	270	0.00	30.395 
15:30	34.9	31.4	34.9	52	19.1	4	9	292	0.00	30.397 
15:35	34.6	31.1	34.6	54	19.7	4	10	270	0.00	30.398 
15:40	34.6	31.1	34.6	53	19.2	4	10	270	0.00	30.403 
15:45	34.6	31.1	34.6	53	19.2	4	6	270	0.00	30.404 
15:50	34.6	31.1	34.6	52	18.8	4	9	270	0.00	30.406 
15:55	34.6	31.1	34.6	54	19.7	4	10	270	0.00	30.410 
16:00	34.9	31.4	34.9	53	19.5	4	9	292	0.00	30.409 
16:05	34.7	31.2	34.7	53	19.3	4	11	270	0.00	30.410 
16:10	34.4	30.8	34.4	52	18.6	4	10	270	0.00	30.411 
16:15	34.0	34.0	34.0	53	18.7	3	8	270	0.00	30.414 
16:20	34.3	34.3	34.3	54	19.4	3	10	270	0.00	30.415 
16:25	34.4	30.8	34.4	53	19.1	4	7	270	0.00	30.413 
16:30	34.4	30.8	34.4	53	19.1	4	9	270	0.00	30.415 
16:35	34.4	34.4	34.4	54	19.5	3	10	270	0.00	30.418 
16:40	34.3	34.3	34.3	54	19.4	3	7	270	0.00	30.420 
16:45	34.3	34.3	34.3	54	19.4	3	7	270	0.00	30.422 
16:50	34.6	34.6	34.6	55	20.1	3	7	270	0.00	30.419 
16:55	34.6	34.6	34.6	55	20.1	3	6	270	0.00	30.425 
17:00	34.3	34.3	34.3	55	19.8	3	10	270	0.00	30.427 
17:05	34.3	30.7	34.3	56	20.3	4	9	270	0.00	30.432 
17:10	34.4	30.8	34.4	56	20.3	4	10	270	0.00	30.440 
17:15	34.6	31.1	34.6	54	19.7	4	8	270	0.00	30.440 
17:20	34.6	34.6	34.6	54	19.7	3	6	270	0.00	30.440 
17:25	34.6	34.6	34.6	55	20.1	2	6	270	0.00	30.444 
17:30	34.4	34.4	34.4	55	19.9	3	10	270	0.00	30.448 
17:35	34.1	30.5	34.1	56	20.1	4	10	270	0.00	30.448 
17:40	34.1	30.5	34.1	56	20.1	4	10	270	0.00	30.448 
17:45	34.0	30.4	34.0	56	20.0	4	9	270	0.00	30.448 
17:50	33.7	30.0	33.7	56	19.7	4	9	270	0.00	30.450 
17:55	33.7	33.7	33.7	56	19.7	3	6	270	0.00	30.457 
18:00	33.8	33.8	33.8	57	20.2	2	6	270	0.00	30.463 
18:05	33.8	33.8	33.8	56	19.8	3	5	270	0.00	30.464 
18:10	33.7	33.7	33.7	57	20.1	3	6	270	0.00	30.465 
18:15	33.4	33.4	33.4	58	20.2	2	4	248	0.00	30.468 
18:20	33.2	33.2	33.2	56	19.2	3	7	270	0.00	30.466 
18:25	33.1	33.1	33.1	57	19.5	3	6	270	0.00	30.469 
18:30	32.9	32.9	32.9	57	19.4	2	6	292	0.00	30.469 
18:35	32.9	32.9	32.9	58	19.8	2	6	270	0.00	30.470 
18:40	32.8	32.8	32.8	58	19.7	2	6	270	0.00	30.471 
18:45	32.7	32.7	32.7	59	20.0	2	4	270	0.00	30.472 
18:50	32.5	32.5	32.5	58	19.4	2	7	270	0.00	30.480 
18:55	32.4	32.4	32.4	57	18.9	3	7	270	0.00	30.483 
19:00	32.2	32.2	32.2	57	18.7	2	6	270	0.00	30.484 
19:05	32.1	32.1	32.1	58	19.0	2	4	270	0.00	30.487 
19:10	32.1	32.1	32.1	58	19.0	3	6	292	0.00	30.494 
19:15	31.9	31.9	31.9	58	18.8	2	5	270	0.00	30.494 
19:20	31.9	31.9	31.9	59	19.2	2	6	270	0.00	30.497 
19:25	31.8	31.8	31.8	60	19.5	1	4	270	0.00	30.498 
19:30	31.8	31.8	31.8	59	19.1	3	6	270	0.00	30.501 
19:35	31.6	31.6	31.6	60	19.3	2	4	270	0.00	30.501 
19:40	31.5	31.5	31.5	59	18.8	3	7	270	0.00	30.503 
19:45	31.3	31.3	31.3	58	18.3	2	6	270	0.00	30.502 
19:50	31.3	31.3	31.3	59	18.7	2	8	270	0.00	30.502 
19:55	31.2	31.2	31.2	60	19.0	2	5	292	0.00	30.506 
20:00	31.0	31.0	31.0	60	18.8	3	7	270	0.00	30.499 
20:05	30.9	30.9	30.9	61	19.1	2	11	270	0.00	30.501 
20:10	30.7	30.7	30.7	61	18.9	2	6	270	0.00	30.506 
20:15	30.6	30.6	30.6	61	18.8	3	6	270	0.00	30.513 
20:20	30.4	30.4	30.4	62	19.0	3	7	270	0.00	30.518 
20:25	30.3	30.3	30.3	62	18.9	2	5	270	0.00	30.519 
20:30	30.1	30.1	30.1	62	18.7	3	6	270	0.00	30.517 
20:35	30.0	30.0	30.0	62	18.6	3	6	270	0.00	30.518 
20:40	29.8	29.8	29.8	63	18.8	3	6	270	0.00	30.526 
20:45	29.7	29.7	29.7	59	17.1	2	5	270	0.00	30.530 
20:50	29.5	29.5	29.5	64	18.8	2	5	270	0.00	30.528 
20:55	29.4	29.4	29.4	64	18.8	3	7	270	0.00	30.532 
21:00	29.4	29.4	29.4	64	18.8	3	9	270	0.00	30.531 
21:05	29.3	29.3	29.3	64	18.7	2	6	270	0.00	30.531 
21:10	29.1	29.1	29.1	65	18.8	3	7	270	0.00	30.532 
21:15	29.1	29.1	29.1	65	18.8	3	6	270	0.00	30.533 
21:20	29.0	29.0	29.0	65	18.7	2	5	270	0.00	30.534 
21:25	29.0	29.0	29.0	66	19.1	1	4	248	0.00	30.533 
21:30	28.8	28.8	28.8	67	19.2	2	3	248	0.00	30.532 
21:35	28.8	28.8	28.8	67	19.2	2	4	292	0.00	30.536 
21:40	28.8	28.8	28.8	67	19.2	2	5	248	0.00	30.548 
21:45	29.0	29.0	29.0	67	19.4	2	5	248	0.00	30.551 
21:50	29.0	29.0	29.0	67	19.4	2	5	248	0.00	30.546 
21:55	29.0	29.0	29.0	67	19.4	2	4	270	0.00	30.548 
22:00	29.0	29.0	29.0	67	19.4	3	5	270	0.00	30.555 
22:05	29.1	29.1	29.1	67	19.5	2	5	248	0.00	30.555 
22:10	29.1	29.1	29.1	67	19.5	1	3	270	0.00	30.552 
22:15	29.0	29.0	29.0	68	19.8	2	5	270	0.00	30.562 
22:20	29.0	29.0	29.0	67	19.4	2	5	270	0.00	30.559 
22:25	29.0	29.0	29.0	66	19.1	3	7	270	0.00	30.551 
22:30	29.0	29.0	29.0	66	19.1	2	11	315	0.00	30.549 
22:35	28.8	28.8	28.8	66	18.9	3	12	315	0.00	30.552 
22:40	28.8	28.8	28.8	66	18.9	2	6	270	0.00	30.552 
22:45	28.8	28.8	28.8	67	19.2	2	5	292	0.00	30.556 
22:50	28.8	28.8	28.8	67	19.2	1	4	292	0.00	30.562 
22:55	28.8	28.8	28.8	68	19.6	1	7	292	0.00	30.558 
23:00	28.7	28.7	28.7	66	18.8	2	4	315	0.00	30.551 
23:05	28.7	28.7	28.7	66	18.8	2	4	270	0.00	30.549 
23:10	28.5	28.5	28.5	67	19.0	1	4	248	0.00	30.551 
23:15	28.5	28.5	28.5	67	19.0	2	4	248	0.00	30.557 
23:20	28.4	28.4	28.4	68	19.2	1	4	248	0.00	30.558 
23:25	28.4	28.4	28.4	68	19.2	2	4	270	0.00	30.564 
23:30	28.4	28.4	28.4	68	19.2	2	4	270	0.00	30.563 
23:35	28.4	28.4	28.4	68	19.2	2	4	270	0.00	30.562 
23:40	28.4	28.4	28.4	69	19.5	1	5	315	0.00	30.565 
23:45	28.4	28.4	28.4	67	18.9	1	3	315	0.00	30.563 
23:50	28.2	28.2	28.2	65	18.0	1	6	292	0.00	30.563 
23:55	28.1	28.1	28.1	65	17.9	1	4	292	0.00	30.565 

CoCoRaHS
IN-AL-39
A2 Web Hosting
Creative Commons License
GoDaddy
search engine by freefind advanced

loaded 2018-11-17 14:08:14 • last modified 2010-11-18 10:43:29
Privacy PolicyDisclaimer
• wx.awcolley.com is powered by PmWiki v.2002016 •
• all content (unless otherwise noted) © 2018 A W Colley